sensor_id;sensor_type;location;lat;lon;timestamp;P1;durP1;ratioP1;P2;durP2;ratioP2
26750;SDS011;14345;48.272;25.926;2023-08-01T00:01:37;4.25;;;2.55;;
26750;SDS011;14345;48.272;25.926;2023-08-01T00:04:03;3.55;;;2.92;;
26750;SDS011;14345;48.272;25.926;2023-08-01T00:06:29;3.67;;;2.80;;
26750;SDS011;14345;48.272;25.926;2023-08-01T00:08:55;5.35;;;2.90;;
26750;SDS011;14345;48.272;25.926;2023-08-01T00:11:21;3.55;;;2.95;;
26750;SDS011;14345;48.272;25.926;2023-08-01T00:13:47;3.38;;;2.83;;
26750;SDS011;14345;48.272;25.926;2023-08-01T00:16:13;3.20;;;2.90;;
26750;SDS011;14345;48.272;25.926;2023-08-01T00:18:39;3.35;;;3.05;;
26750;SDS011;14345;48.272;25.926;2023-08-01T00:21:05;3.22;;;2.85;;
26750;SDS011;14345;48.272;25.926;2023-08-01T00:23:35;3.00;;;2.70;;
26750;SDS011;14345;48.272;25.926;2023-08-01T00:26:01;2.80;;;2.58;;
26750;SDS011;14345;48.272;25.926;2023-08-01T00:28:27;2.83;;;2.63;;
26750;SDS011;14345;48.272;25.926;2023-08-01T00:31:05;4.20;;;3.55;;
26750;SDS011;14345;48.272;25.926;2023-08-01T00:33:33;3.60;;;3.17;;
26750;SDS011;14345;48.272;25.926;2023-08-01T00:35:59;3.25;;;2.95;;
26750;SDS011;14345;48.272;25.926;2023-08-01T00:38:26;3.17;;;2.90;;
26750;SDS011;14345;48.272;25.926;2023-08-01T00:40:52;3.97;;;2.95;;
26750;SDS011;14345;48.272;25.926;2023-08-01T00:43:18;3.55;;;3.25;;
26750;SDS011;14345;48.272;25.926;2023-08-01T00:45:44;3.63;;;3.17;;
26750;SDS011;14345;48.272;25.926;2023-08-01T00:48:11;4.20;;;3.20;;
26750;SDS011;14345;48.272;25.926;2023-08-01T00:50:37;3.78;;;3.13;;
26750;SDS011;14345;48.272;25.926;2023-08-01T00:53:04;4.95;;;2.88;;
26750;SDS011;14345;48.272;25.926;2023-08-01T00:55:31;3.20;;;2.75;;
26750;SDS011;14345;48.272;25.926;2023-08-01T00:57:58;2.90;;;2.60;;
26750;SDS011;14345;48.272;25.926;2023-08-01T01:00:24;4.05;;;2.80;;
26750;SDS011;14345;48.272;25.926;2023-08-01T01:02:50;3.35;;;2.90;;
26750;SDS011;14345;48.272;25.926;2023-08-01T01:05:17;3.28;;;2.60;;
26750;SDS011;14345;48.272;25.926;2023-08-01T01:07:43;4.30;;;2.75;;
26750;SDS011;14345;48.272;25.926;2023-08-01T01:10:09;3.40;;;2.78;;
26750;SDS011;14345;48.272;25.926;2023-08-01T01:12:35;3.33;;;2.75;;
26750;SDS011;14345;48.272;25.926;2023-08-01T01:15:01;3.97;;;3.15;;
26750;SDS011;14345;48.272;25.926;2023-08-01T01:17:27;2.97;;;2.60;;
26750;SDS011;14345;48.272;25.926;2023-08-01T01:19:53;3.35;;;2.55;;
26750;SDS011;14345;48.272;25.926;2023-08-01T01:22:19;2.95;;;2.63;;
26750;SDS011;14345;48.272;25.926;2023-08-01T01:24:46;3.20;;;2.90;;
26750;SDS011;14345;48.272;25.926;2023-08-01T01:27:13;7.45;;;3.30;;
26750;SDS011;14345;48.272;25.926;2023-08-01T01:29:41;4.78;;;2.50;;
26750;SDS011;14345;48.272;25.926;2023-08-01T01:32:08;5.82;;;3.40;;
26750;SDS011;14345;48.272;25.926;2023-08-01T01:34:34;3.67;;;3.28;;
26750;SDS011;14345;48.272;25.926;2023-08-01T01:37:00;2.72;;;2.50;;
26750;SDS011;14345;48.272;25.926;2023-08-01T01:39:28;3.13;;;2.83;;
26750;SDS011;14345;48.272;25.926;2023-08-01T01:41:54;3.67;;;2.80;;
26750;SDS011;14345;48.272;25.926;2023-08-01T01:44:20;3.90;;;3.50;;
26750;SDS011;14345;48.272;25.926;2023-08-01T01:46:46;3.42;;;3.13;;
26750;SDS011;14345;48.272;25.926;2023-08-01T01:49:14;4.00;;;3.60;;
26750;SDS011;14345;48.272;25.926;2023-08-01T01:51:40;4.40;;;3.47;;
26750;SDS011;14345;48.272;25.926;2023-08-01T01:54:06;4.28;;;3.60;;
26750;SDS011;14345;48.272;25.926;2023-08-01T01:56:32;4.20;;;3.80;;
26750;SDS011;14345;48.272;25.926;2023-08-01T01:59:00;3.88;;;3.13;;
26750;SDS011;14345;48.272;25.926;2023-08-01T02:01:26;4.30;;;3.67;;
26750;SDS011;14345;48.272;25.926;2023-08-01T02:03:52;4.00;;;3.40;;
26750;SDS011;14345;48.272;25.926;2023-08-01T02:06:18;4.70;;;3.95;;
26750;SDS011;14345;48.272;25.926;2023-08-01T02:08:44;4.75;;;3.50;;
26750;SDS011;14345;48.272;25.926;2023-08-01T02:11:10;4.22;;;3.28;;
26750;SDS011;14345;48.272;25.926;2023-08-01T02:13:36;3.90;;;3.50;;
26750;SDS011;14345;48.272;25.926;2023-08-01T02:16:02;3.80;;;3.35;;
26750;SDS011;14345;48.272;25.926;2023-08-01T02:18:28;3.65;;;3.00;;
26750;SDS011;14345;48.272;25.926;2023-08-01T02:20:54;3.85;;;2.92;;
26750;SDS011;14345;48.272;25.926;2023-08-01T02:23:20;3.65;;;3.00;;
26750;SDS011;14345;48.272;25.926;2023-08-01T02:25:46;6.60;;;3.67;;
26750;SDS011;14345;48.272;25.926;2023-08-01T02:28:12;5.32;;;3.30;;
26750;SDS011;14345;48.272;25.926;2023-08-01T02:30:38;3.75;;;2.83;;
26750;SDS011;14345;48.272;25.926;2023-08-01T02:33:04;3.72;;;2.95;;
26750;SDS011;14345;48.272;25.926;2023-08-01T02:35:30;3.28;;;2.97;;
26750;SDS011;14345;48.272;25.926;2023-08-01T02:37:56;3.47;;;2.78;;
26750;SDS011;14345;48.272;25.926;2023-08-01T02:40:22;4.50;;;2.65;;
26750;SDS011;14345;48.272;25.926;2023-08-01T02:42:49;3.10;;;2.65;;
26750;SDS011;14345;48.272;25.926;2023-08-01T02:45:15;4.28;;;2.90;;
26750;SDS011;14345;48.272;25.926;2023-08-01T02:47:41;4.20;;;2.80;;
26750;SDS011;14345;48.272;25.926;2023-08-01T02:50:07;5.38;;;3.00;;
26750;SDS011;14345;48.272;25.926;2023-08-01T02:52:33;2.42;;;2.22;;
26750;SDS011;14345;48.272;25.926;2023-08-01T02:54:59;4.00;;;2.53;;
26750;SDS011;14345;48.272;25.926;2023-08-01T02:57:25;3.50;;;2.85;;
26750;SDS011;14345;48.272;25.926;2023-08-01T02:59:51;3.20;;;2.90;;
26750;SDS011;14345;48.272;25.926;2023-08-01T03:02:18;4.07;;;2.55;;
26750;SDS011;14345;48.272;25.926;2023-08-01T03:04:44;5.40;;;2.53;;
26750;SDS011;14345;48.272;25.926;2023-08-01T03:07:10;6.60;;;3.20;;
26750;SDS011;14345;48.272;25.926;2023-08-01T03:09:36;8.98;;;5.88;;
26750;SDS011;14345;48.272;25.926;2023-08-01T03:12:03;10.18;;;7.38;;
26750;SDS011;14345;48.272;25.926;2023-08-01T03:14:29;8.57;;;6.80;;
26750;SDS011;14345;48.272;25.926;2023-08-01T03:16:55;10.75;;;6.15;;
26750;SDS011;14345;48.272;25.926;2023-08-01T03:19:21;5.50;;;4.68;;
26750;SDS011;14345;48.272;25.926;2023-08-01T03:21:47;4.72;;;3.45;;
26750;SDS011;14345;48.272;25.926;2023-08-01T03:24:13;3.83;;;2.83;;
26750;SDS011;14345;48.272;25.926;2023-08-01T03:26:39;3.53;;;2.60;;
26750;SDS011;14345;48.272;25.926;2023-08-01T03:29:05;4.10;;;2.30;;
26750;SDS011;14345;48.272;25.926;2023-08-01T03:31:31;4.03;;;2.28;;
26750;SDS011;14345;48.272;25.926;2023-08-01T03:33:57;4.57;;;3.78;;
26750;SDS011;14345;48.272;25.926;2023-08-01T03:36:25;14.23;;;10.07;;
26750;SDS011;14345;48.272;25.926;2023-08-01T03:38:51;16.58;;;11.77;;
26750;SDS011;14345;48.272;25.926;2023-08-01T03:41:18;15.18;;;9.73;;
26750;SDS011;14345;48.272;25.926;2023-08-01T03:43:44;11.70;;;8.27;;
26750;SDS011;14345;48.272;25.926;2023-08-01T03:46:10;7.55;;;5.47;;
26750;SDS011;14345;48.272;25.926;2023-08-01T03:48:36;4.35;;;3.50;;
26750;SDS011;14345;48.272;25.926;2023-08-01T03:51:02;5.90;;;2.95;;
26750;SDS011;14345;48.272;25.926;2023-08-01T03:53:29;9.77;;;6.45;;
26750;SDS011;14345;48.272;25.926;2023-08-01T03:55:55;16.95;;;11.15;;
26750;SDS011;14345;48.272;25.926;2023-08-01T03:58:21;11.27;;;7.30;;
26750;SDS011;14345;48.272;25.926;2023-08-01T04:00:47;7.38;;;5.38;;
26750;SDS011;14345;48.272;25.926;2023-08-01T04:03:13;7.57;;;5.70;;
26750;SDS011;14345;48.272;25.926;2023-08-01T04:05:39;9.30;;;6.10;;
26750;SDS011;14345;48.272;25.926;2023-08-01T04:08:06;8.18;;;5.47;;
26750;SDS011;14345;48.272;25.926;2023-08-01T04:10:32;7.55;;;4.97;;
26750;SDS011;14345;48.272;25.926;2023-08-01T04:12:58;5.95;;;4.80;;
26750;SDS011;14345;48.272;25.926;2023-08-01T04:15:24;5.68;;;4.55;;
26750;SDS011;14345;48.272;25.926;2023-08-01T04:17:50;5.85;;;3.67;;
26750;SDS011;14345;48.272;25.926;2023-08-01T04:20:16;5.80;;;3.83;;
26750;SDS011;14345;48.272;25.926;2023-08-01T04:22:42;8.10;;;3.50;;
26750;SDS011;14345;48.272;25.926;2023-08-01T04:25:08;5.80;;;3.50;;
26750;SDS011;14345;48.272;25.926;2023-08-01T04:27:34;4.30;;;3.40;;
26750;SDS011;14345;48.272;25.926;2023-08-01T04:30:00;3.72;;;3.33;;
26750;SDS011;14345;48.272;25.926;2023-08-01T04:32:26;6.00;;;3.40;;
26750;SDS011;14345;48.272;25.926;2023-08-01T04:34:52;6.78;;;3.30;;
26750;SDS011;14345;48.272;25.926;2023-08-01T04:37:18;5.40;;;3.42;;
26750;SDS011;14345;48.272;25.926;2023-08-01T04:39:48;3.58;;;3.15;;
26750;SDS011;14345;48.272;25.926;2023-08-01T04:42:14;3.75;;;3.03;;
26750;SDS011;14345;48.272;25.926;2023-08-01T04:44:40;5.57;;;4.53;;
26750;SDS011;14345;48.272;25.926;2023-08-01T04:47:06;7.68;;;6.78;;
26750;SDS011;14345;48.272;25.926;2023-08-01T04:49:32;7.03;;;6.10;;
26750;SDS011;14345;48.272;25.926;2023-08-01T04:51:58;7.00;;;4.93;;
26750;SDS011;14345;48.272;25.926;2023-08-01T04:54:25;6.32;;;4.65;;
26750;SDS011;14345;48.272;25.926;2023-08-01T04:56:51;8.10;;;6.13;;
26750;SDS011;14345;48.272;25.926;2023-08-01T04:59:17;10.20;;;7.43;;
26750;SDS011;14345;48.272;25.926;2023-08-01T05:01:43;7.00;;;5.32;;
26750;SDS011;14345;48.272;25.926;2023-08-01T05:04:09;7.13;;;5.25;;
26750;SDS011;14345;48.272;25.926;2023-08-01T05:06:35;5.45;;;4.43;;
26750;SDS011;14345;48.272;25.926;2023-08-01T05:09:01;6.28;;;4.43;;
26750;SDS011;14345;48.272;25.926;2023-08-01T05:11:27;5.82;;;3.90;;
26750;SDS011;14345;48.272;25.926;2023-08-01T05:13:54;4.32;;;3.80;;
26750;SDS011;14345;48.272;25.926;2023-08-01T05:16:20;5.70;;;3.40;;
26750;SDS011;14345;48.272;25.926;2023-08-01T05:18:46;3.70;;;3.30;;
26750;SDS011;14345;48.272;25.926;2023-08-01T05:21:12;3.70;;;3.10;;
26750;SDS011;14345;48.272;25.926;2023-08-01T05:23:37;4.78;;;3.40;;
26750;SDS011;14345;48.272;25.926;2023-08-01T05:26:03;3.78;;;3.38;;
26750;SDS011;14345;48.272;25.926;2023-08-01T05:28:29;5.05;;;3.15;;
26750;SDS011;14345;48.272;25.926;2023-08-01T05:30:55;3.53;;;2.90;;
26750;SDS011;14345;48.272;25.926;2023-08-01T05:33:21;5.32;;;3.38;;
26750;SDS011;14345;48.272;25.926;2023-08-01T05:35:50;5.57;;;3.30;;
26750;SDS011;14345;48.272;25.926;2023-08-01T05:38:17;6.28;;;2.95;;
26750;SDS011;14345;48.272;25.926;2023-08-01T05:40:42;4.90;;;3.67;;
26750;SDS011;14345;48.272;25.926;2023-08-01T05:43:08;5.13;;;3.33;;
26750;SDS011;14345;48.272;25.926;2023-08-01T05:45:35;4.03;;;3.47;;
26750;SDS011;14345;48.272;25.926;2023-08-01T05:48:01;3.78;;;3.38;;
26750;SDS011;14345;48.272;25.926;2023-08-01T05:50:27;6.43;;;3.30;;
26750;SDS011;14345;48.272;25.926;2023-08-01T05:52:53;3.80;;;2.97;;
26750;SDS011;14345;48.272;25.926;2023-08-01T05:55:19;5.00;;;3.28;;
26750;SDS011;14345;48.272;25.926;2023-08-01T05:57:46;4.10;;;3.20;;
26750;SDS011;14345;48.272;25.926;2023-08-01T06:00:14;3.55;;;3.20;;
26750;SDS011;14345;48.272;25.926;2023-08-01T06:02:40;5.20;;;3.53;;
26750;SDS011;14345;48.272;25.926;2023-08-01T06:05:06;4.85;;;3.50;;
26750;SDS011;14345;48.272;25.926;2023-08-01T06:07:32;5.97;;;3.53;;
26750;SDS011;14345;48.272;25.926;2023-08-01T06:09:58;5.80;;;3.65;;
26750;SDS011;14345;48.272;25.926;2023-08-01T06:12:24;5.75;;;3.83;;
26750;SDS011;14345;48.272;25.926;2023-08-01T06:14:50;4.32;;;3.70;;
26750;SDS011;14345;48.272;25.926;2023-08-01T06:17:16;4.00;;;3.03;;
26750;SDS011;14345;48.272;25.926;2023-08-01T06:19:42;4.30;;;3.00;;
26750;SDS011;14345;48.272;25.926;2023-08-01T06:22:08;3.53;;;3.00;;
26750;SDS011;14345;48.272;25.926;2023-08-01T06:24:34;3.35;;;3.00;;
26750;SDS011;14345;48.272;25.926;2023-08-01T06:27:00;5.78;;;3.20;;
26750;SDS011;14345;48.272;25.926;2023-08-01T06:29:26;4.60;;;3.03;;
26750;SDS011;14345;48.272;25.926;2023-08-01T06:31:52;5.28;;;2.75;;
26750;SDS011;14345;48.272;25.926;2023-08-01T06:34:18;3.67;;;2.67;;
26750;SDS011;14345;48.272;25.926;2023-08-01T06:36:44;3.33;;;2.78;;
26750;SDS011;14345;48.272;25.926;2023-08-01T06:39:11;7.18;;;3.53;;
26750;SDS011;14345;48.272;25.926;2023-08-01T06:41:37;10.02;;;3.33;;
26750;SDS011;14345;48.272;25.926;2023-08-01T06:44:03;5.53;;;3.20;;
26750;SDS011;14345;48.272;25.926;2023-08-01T06:46:29;4.38;;;2.70;;
26750;SDS011;14345;48.272;25.926;2023-08-01T06:48:55;5.45;;;2.88;;
26750;SDS011;14345;48.272;25.926;2023-08-01T06:51:21;2.72;;;2.50;;
26750;SDS011;14345;48.272;25.926;2023-08-01T06:53:47;3.35;;;2.70;;
26750;SDS011;14345;48.272;25.926;2023-08-01T06:56:13;4.65;;;2.90;;
26750;SDS011;14345;48.272;25.926;2023-08-01T06:58:39;3.13;;;2.47;;
26750;SDS011;14345;48.272;25.926;2023-08-01T07:01:05;3.47;;;3.00;;
26750;SDS011;14345;48.272;25.926;2023-08-01T07:03:31;3.20;;;2.17;;
26750;SDS011;14345;48.272;25.926;2023-08-01T07:05:57;3.45;;;2.17;;
26750;SDS011;14345;48.272;25.926;2023-08-01T07:08:23;2.72;;;2.53;;
26750;SDS011;14345;48.272;25.926;2023-08-01T07:10:49;2.92;;;2.28;;
26750;SDS011;14345;48.272;25.926;2023-08-01T07:13:15;5.50;;;2.10;;
26750;SDS011;14345;48.272;25.926;2023-08-01T07:15:42;2.15;;;1.95;;
26750;SDS011;14345;48.272;25.926;2023-08-01T07:18:08;2.90;;;2.28;;
26750;SDS011;14345;48.272;25.926;2023-08-01T07:20:34;2.45;;;2.25;;
26750;SDS011;14345;48.272;25.926;2023-08-01T07:23:00;4.00;;;2.63;;
26750;SDS011;14345;48.272;25.926;2023-08-01T07:25:26;3.53;;;2.53;;
26750;SDS011;14345;48.272;25.926;2023-08-01T07:27:52;2.97;;;2.42;;
26750;SDS011;14345;48.272;25.926;2023-08-01T07:30:18;4.28;;;2.60;;
26750;SDS011;14345;48.272;25.926;2023-08-01T07:32:44;3.33;;;2.40;;
26750;SDS011;14345;48.272;25.926;2023-08-01T07:35:10;3.30;;;2.33;;
26750;SDS011;14345;48.272;25.926;2023-08-01T07:37:36;3.22;;;2.25;;
26750;SDS011;14345;48.272;25.926;2023-08-01T07:40:03;2.83;;;2.35;;
26750;SDS011;14345;48.272;25.926;2023-08-01T07:42:29;2.53;;;1.90;;
26750;SDS011;14345;48.272;25.926;2023-08-01T07:44:55;2.22;;;2.03;;
26750;SDS011;14345;48.272;25.926;2023-08-01T07:47:21;3.30;;;2.35;;
26750;SDS011;14345;48.272;25.926;2023-08-01T07:49:49;3.67;;;2.55;;
26750;SDS011;14345;48.272;25.926;2023-08-01T07:52:15;2.90;;;2.40;;
26750;SDS011;14345;48.272;25.926;2023-08-01T07:54:41;2.97;;;2.17;;
26750;SDS011;14345;48.272;25.926;2023-08-01T07:57:07;2.40;;;2.20;;
26750;SDS011;14345;48.272;25.926;2023-08-01T07:59:33;4.55;;;2.95;;
26750;SDS011;14345;48.272;25.926;2023-08-01T08:01:59;3.75;;;2.55;;
26750;SDS011;14345;48.272;25.926;2023-08-01T08:04:25;5.00;;;2.55;;
26750;SDS011;14345;48.272;25.926;2023-08-01T08:06:51;2.58;;;2.35;;
26750;SDS011;14345;48.272;25.926;2023-08-01T08:09:17;3.63;;;2.55;;
26750;SDS011;14345;48.272;25.926;2023-08-01T08:11:43;2.88;;;2.58;;
26750;SDS011;14345;48.272;25.926;2023-08-01T08:14:09;5.85;;;2.53;;
26750;SDS011;14345;48.272;25.926;2023-08-01T08:16:36;2.50;;;2.30;;
26750;SDS011;14345;48.272;25.926;2023-08-01T08:19:02;3.63;;;2.70;;
26750;SDS011;14345;48.272;25.926;2023-08-01T08:21:28;2.67;;;2.47;;
26750;SDS011;14345;48.272;25.926;2023-08-01T08:23:54;3.38;;;3.08;;
26750;SDS011;14345;48.272;25.926;2023-08-01T08:26:21;4.55;;;2.95;;
26750;SDS011;14345;48.272;25.926;2023-08-01T08:28:47;2.70;;;2.20;;
26750;SDS011;14345;48.272;25.926;2023-08-01T08:31:13;3.38;;;2.85;;
26750;SDS011;14345;48.272;25.926;2023-08-01T08:33:39;3.28;;;2.97;;
26750;SDS011;14345;48.272;25.926;2023-08-01T08:36:05;2.80;;;2.40;;
26750;SDS011;14345;48.272;25.926;2023-08-01T08:38:31;3.03;;;2.40;;
26750;SDS011;14345;48.272;25.926;2023-08-01T08:41:09;3.22;;;2.50;;
26750;SDS011;14345;48.272;25.926;2023-08-01T08:43:36;4.88;;;2.85;;
26750;SDS011;14345;48.272;25.926;2023-08-01T08:46:02;3.78;;;2.50;;
26750;SDS011;14345;48.272;25.926;2023-08-01T08:48:29;3.15;;;2.70;;
26750;SDS011;14345;48.272;25.926;2023-08-01T08:50:59;2.47;;;2.28;;
26750;SDS011;14345;48.272;25.926;2023-08-01T08:53:25;2.47;;;2.28;;
26750;SDS011;14345;48.272;25.926;2023-08-01T08:55:51;3.05;;;2.60;;
26750;SDS011;14345;48.272;25.926;2023-08-01T08:58:17;3.38;;;3.08;;
26750;SDS011;14345;48.272;25.926;2023-08-01T09:00:44;4.03;;;3.10;;
26750;SDS011;14345;48.272;25.926;2023-08-01T09:03:10;4.18;;;2.58;;
26750;SDS011;14345;48.272;25.926;2023-08-01T09:05:40;3.55;;;3.17;;
26750;SDS011;14345;48.272;25.926;2023-08-01T09:08:14;2.75;;;2.50;;
26750;SDS011;14345;48.272;25.926;2023-08-01T09:10:41;3.30;;;3.00;;
26750;SDS011;14345;48.272;25.926;2023-08-01T09:13:07;3.78;;;3.33;;
26750;SDS011;14345;48.272;25.926;2023-08-01T09:15:34;4.55;;;2.70;;
26750;SDS011;14345;48.272;25.926;2023-08-01T09:18:01;3.15;;;2.72;;
26750;SDS011;14345;48.272;25.926;2023-08-01T09:20:38;3.92;;;3.05;;
26750;SDS011;14345;48.272;25.926;2023-08-01T09:25:31;3.75;;;3.20;;
26750;SDS011;14345;48.272;25.926;2023-08-01T09:27:57;3.97;;;3.33;;
26750;SDS011;14345;48.272;25.926;2023-08-01T09:30:23;3.47;;;2.83;;
26750;SDS011;14345;48.272;25.926;2023-08-01T09:32:53;3.83;;;3.10;;
26750;SDS011;14345;48.272;25.926;2023-08-01T09:35:19;3.72;;;3.13;;
26750;SDS011;14345;48.272;25.926;2023-08-01T09:37:46;3.20;;;2.80;;
26750;SDS011;14345;48.272;25.926;2023-08-01T09:40:13;3.97;;;3.25;;
26750;SDS011;14345;48.272;25.926;2023-08-01T09:42:42;5.05;;;2.92;;
26750;SDS011;14345;48.272;25.926;2023-08-01T09:45:15;3.05;;;2.58;;
26750;SDS011;14345;48.272;25.926;2023-08-01T09:47:42;3.83;;;2.80;;
26750;SDS011;14345;48.272;25.926;2023-08-01T09:50:09;6.47;;;3.03;;
26750;SDS011;14345;48.272;25.926;2023-08-01T09:52:36;4.78;;;2.97;;
26750;SDS011;14345;48.272;25.926;2023-08-01T09:55:02;4.75;;;2.90;;
26750;SDS011;14345;48.272;25.926;2023-08-01T09:57:29;4.03;;;3.63;;
26750;SDS011;14345;48.272;25.926;2023-08-01T09:59:56;4.85;;;3.10;;
26750;SDS011;14345;48.272;25.926;2023-08-01T10:02:23;3.60;;;2.88;;
26750;SDS011;14345;48.272;25.926;2023-08-01T10:04:49;3.08;;;2.75;;
26750;SDS011;14345;48.272;25.926;2023-08-01T10:07:17;3.35;;;2.90;;
26750;SDS011;14345;48.272;25.926;2023-08-01T10:09:46;3.33;;;2.40;;
26750;SDS011;14345;48.272;25.926;2023-08-01T10:12:13;3.00;;;2.40;;
26750;SDS011;14345;48.272;25.926;2023-08-01T10:14:40;5.10;;;3.92;;
26750;SDS011;14345;48.272;25.926;2023-08-01T10:17:07;5.18;;;4.00;;
26750;SDS011;14345;48.272;25.926;2023-08-01T10:19:33;3.30;;;3.00;;
26750;SDS011;14345;48.272;25.926;2023-08-01T10:22:00;3.97;;;2.80;;
26750;SDS011;14345;48.272;25.926;2023-08-01T10:24:26;3.22;;;2.45;;
26750;SDS011;14345;48.272;25.926;2023-08-01T10:26:53;3.80;;;2.60;;
26750;SDS011;14345;48.272;25.926;2023-08-01T10:29:19;5.63;;;2.40;;
26750;SDS011;14345;48.272;25.926;2023-08-01T10:31:54;4.88;;;2.95;;
26750;SDS011;14345;48.272;25.926;2023-08-01T10:34:20;2.80;;;2.60;;
26750;SDS011;14345;48.272;25.926;2023-08-01T10:36:55;2.20;;;2.00;;
26750;SDS011;14345;48.272;25.926;2023-08-01T10:39:22;6.55;;;2.85;;
26750;SDS011;14345;48.272;25.926;2023-08-01T10:41:56;4.65;;;2.40;;
26750;SDS011;14345;48.272;25.926;2023-08-01T10:44:23;2.85;;;2.38;;
26750;SDS011;14345;48.272;25.926;2023-08-01T10:46:53;2.33;;;2.00;;
26750;SDS011;14345;48.272;25.926;2023-08-01T10:49:20;2.45;;;1.67;;
26750;SDS011;14345;48.272;25.926;2023-08-01T10:51:47;1.88;;;1.55;;
26750;SDS011;14345;48.272;25.926;2023-08-01T10:54:19;1.67;;;1.58;;
26750;SDS011;14345;48.272;25.926;2023-08-01T10:56:49;2.10;;;1.45;;
26750;SDS011;14345;48.272;25.926;2023-08-01T10:59:15;2.25;;;1.40;;
26750;SDS011;14345;48.272;25.926;2023-08-01T11:04:17;1.98;;;1.75;;
26750;SDS011;14345;48.272;25.926;2023-08-01T11:06:44;2.08;;;1.88;;
26750;SDS011;14345;48.272;25.926;2023-08-01T11:11:43;1.70;;;1.45;;
26750;SDS011;14345;48.272;25.926;2023-08-01T11:14:09;1.40;;;1.30;;
26750;SDS011;14345;48.272;25.926;2023-08-01T11:16:37;1.88;;;1.50;;
26750;SDS011;14345;48.272;25.926;2023-08-01T11:19:03;2.70;;;1.48;;
26750;SDS011;14345;48.272;25.926;2023-08-01T11:21:29;2.88;;;2.30;;
26750;SDS011;14345;48.272;25.926;2023-08-01T11:23:56;4.10;;;1.60;;
26750;SDS011;14345;48.272;25.926;2023-08-01T11:26:22;2.00;;;1.30;;
26750;SDS011;14345;48.272;25.926;2023-08-01T11:28:48;2.10;;;1.30;;
26750;SDS011;14345;48.272;25.926;2023-08-01T11:31:14;4.18;;;1.85;;
26750;SDS011;14345;48.272;25.926;2023-08-01T11:33:40;2.15;;;1.88;;
26750;SDS011;14345;48.272;25.926;2023-08-01T11:36:06;3.60;;;1.48;;
26750;SDS011;14345;48.272;25.926;2023-08-01T11:38:33;1.67;;;1.35;;
26750;SDS011;14345;48.272;25.926;2023-08-01T11:41:00;1.50;;;1.40;;
26750;SDS011;14345;48.272;25.926;2023-08-01T11:43:37;2.15;;;1.67;;
26750;SDS011;14345;48.272;25.926;2023-08-01T11:46:03;1.98;;;1.60;;
26750;SDS011;14345;48.272;25.926;2023-08-01T11:48:29;1.67;;;1.42;;
26750;SDS011;14345;48.272;25.926;2023-08-01T11:50:58;3.25;;;1.45;;
26750;SDS011;14345;48.272;25.926;2023-08-01T11:53:25;1.95;;;1.20;;
26750;SDS011;14345;48.272;25.926;2023-08-01T11:55:51;1.90;;;1.48;;
26750;SDS011;14345;48.272;25.926;2023-08-01T11:58:40;1.27;;;1.17;;
26750;SDS011;14345;48.272;25.926;2023-08-01T12:01:13;1.95;;;1.27;;
26750;SDS011;14345;48.272;25.926;2023-08-01T12:03:49;1.77;;;1.33;;
26750;SDS011;14345;48.272;25.926;2023-08-01T12:06:15;4.32;;;1.33;;
26750;SDS011;14345;48.272;25.926;2023-08-01T12:08:42;3.70;;;1.10;;
26750;SDS011;14345;48.272;25.926;2023-08-01T12:11:24;1.80;;;1.10;;
26750;SDS011;14345;48.272;25.926;2023-08-01T12:16:35;1.45;;;1.35;;
26750;SDS011;14345;48.272;25.926;2023-08-01T12:19:01;1.77;;;1.25;;
26750;SDS011;14345;48.272;25.926;2023-08-01T12:21:28;1.35;;;1.10;;
26750;SDS011;14345;48.272;25.926;2023-08-01T12:23:54;2.72;;;1.08;;
26750;SDS011;14345;48.272;25.926;2023-08-01T12:26:20;3.92;;;1.50;;
26750;SDS011;14345;48.272;25.926;2023-08-01T12:28:46;1.60;;;1.00;;
26750;SDS011;14345;48.272;25.926;2023-08-01T12:31:15;1.13;;;1.02;;
26750;SDS011;14345;48.272;25.926;2023-08-01T12:33:41;2.10;;;1.10;;
26750;SDS011;14345;48.272;25.926;2023-08-01T12:36:07;1.10;;;1.00;;
26750;SDS011;14345;48.272;25.926;2023-08-01T12:38:33;1.20;;;1.10;;
26750;SDS011;14345;48.272;25.926;2023-08-01T12:41:00;1.60;;;1.05;;
26750;SDS011;14345;48.272;25.926;2023-08-01T12:43:26;1.45;;;1.17;;
26750;SDS011;14345;48.272;25.926;2023-08-01T12:45:52;1.40;;;1.15;;
26750;SDS011;14345;48.272;25.926;2023-08-01T12:48:20;1.20;;;1.10;;
26750;SDS011;14345;48.272;25.926;2023-08-01T12:50:46;2.92;;;1.30;;
26750;SDS011;14345;48.272;25.926;2023-08-01T12:53:13;1.83;;;1.25;;
26750;SDS011;14345;48.272;25.926;2023-08-01T12:55:43;3.72;;;1.15;;
26750;SDS011;14345;48.272;25.926;2023-08-01T12:58:09;2.13;;;1.20;;
26750;SDS011;14345;48.272;25.926;2023-08-01T13:00:35;1.23;;;1.13;;
26750;SDS011;14345;48.272;25.926;2023-08-01T13:03:01;1.30;;;1.20;;
26750;SDS011;14345;48.272;25.926;2023-08-01T13:05:27;1.42;;;1.30;;
26750;SDS011;14345;48.272;25.926;2023-08-01T13:07:53;2.13;;;1.20;;
26750;SDS011;14345;48.272;25.926;2023-08-01T13:10:19;4.05;;;1.20;;
26750;SDS011;14345;48.272;25.926;2023-08-01T13:12:45;1.80;;;1.20;;
26750;SDS011;14345;48.272;25.926;2023-08-01T13:15:11;1.08;;;1.08;;
26750;SDS011;14345;48.272;25.926;2023-08-01T13:17:38;1.60;;;1.50;;
26750;SDS011;14345;48.272;25.926;2023-08-01T13:20:04;2.25;;;1.55;;
26750;SDS011;14345;48.272;25.926;2023-08-01T13:22:31;1.75;;;1.65;;
26750;SDS011;14345;48.272;25.926;2023-08-01T13:24:57;2.30;;;2.10;;
26750;SDS011;14345;48.272;25.926;2023-08-01T13:27:23;2.47;;;1.98;;
26750;SDS011;14345;48.272;25.926;2023-08-01T13:29:49;2.72;;;1.90;;
26750;SDS011;14345;48.272;25.926;2023-08-01T13:32:17;2.92;;;1.70;;
26750;SDS011;14345;48.272;25.926;2023-08-01T13:34:43;1.63;;;1.50;;
26750;SDS011;14345;48.272;25.926;2023-08-01T13:37:09;6.00;;;1.80;;
26750;SDS011;14345;48.272;25.926;2023-08-01T13:39:35;1.70;;;1.55;;
26750;SDS011;14345;48.272;25.926;2023-08-01T13:42:01;4.13;;;1.90;;
26750;SDS011;14345;48.272;25.926;2023-08-01T13:44:27;2.40;;;1.88;;
26750;SDS011;14345;48.272;25.926;2023-08-01T13:46:53;2.35;;;1.70;;
26750;SDS011;14345;48.272;25.926;2023-08-01T13:49:19;4.45;;;1.73;;
26750;SDS011;14345;48.272;25.926;2023-08-01T13:51:45;2.10;;;1.80;;
26750;SDS011;14345;48.272;25.926;2023-08-01T13:54:11;2.00;;;1.40;;
26750;SDS011;14345;48.272;25.926;2023-08-01T13:56:37;2.05;;;1.45;;
26750;SDS011;14345;48.272;25.926;2023-08-01T13:59:04;2.90;;;1.50;;
26750;SDS011;14345;48.272;25.926;2023-08-01T14:01:30;1.50;;;1.40;;
26750;SDS011;14345;48.272;25.926;2023-08-01T14:03:56;1.50;;;1.40;;
26750;SDS011;14345;48.272;25.926;2023-08-01T14:06:23;2.78;;;1.65;;
26750;SDS011;14345;48.272;25.926;2023-08-01T14:08:49;2.05;;;1.60;;
26750;SDS011;14345;48.272;25.926;2023-08-01T14:11:15;4.53;;;1.35;;
26750;SDS011;14345;48.272;25.926;2023-08-01T14:13:43;1.60;;;1.40;;
26750;SDS011;14345;48.272;25.926;2023-08-01T14:16:09;2.35;;;1.40;;
26750;SDS011;14345;48.272;25.926;2023-08-01T14:18:35;3.10;;;1.63;;
26750;SDS011;14345;48.272;25.926;2023-08-01T14:21:01;4.15;;;1.60;;
26750;SDS011;14345;48.272;25.926;2023-08-01T14:23:27;3.80;;;3.40;;
26750;SDS011;14345;48.272;25.926;2023-08-01T14:25:53;2.03;;;1.70;;
26750;SDS011;14345;48.272;25.926;2023-08-01T14:28:19;1.92;;;1.38;;
26750;SDS011;14345;48.272;25.926;2023-08-01T14:30:45;2.15;;;1.10;;
26750;SDS011;14345;48.272;25.926;2023-08-01T14:33:11;2.50;;;1.25;;
26750;SDS011;14345;48.272;25.926;2023-08-01T14:35:38;1.30;;;1.20;;
26750;SDS011;14345;48.272;25.926;2023-08-01T14:38:04;5.13;;;1.38;;
26750;SDS011;14345;48.272;25.926;2023-08-01T14:40:30;1.70;;;1.20;;